createdAt,value
2023-04-02T00:02:09.878Z,95456.28
2023-04-02T00:04:38.073Z,95461.59
2023-04-02T00:07:30.922Z,95448.44
2023-04-02T00:09:57.788Z,95459.06
2023-04-02T00:12:24.295Z,95462.56
2023-04-02T00:14:52.213Z,95457.38
2023-04-02T00:17:19.081Z,95464.38
2023-04-02T00:19:50.018Z,95461.00
2023-04-02T00:22:18.178Z,95463.66
2023-04-02T00:24:44.765Z,95461.00
2023-04-02T00:27:12.047Z,95466.34
2023-04-02T00:29:45.249Z,95459.31
2023-04-02T00:32:13.956Z,95471.75
2023-04-02T00:34:40.538Z,95469.94
2023-04-02T00:37:07.064Z,95474.41
2023-04-02T00:39:34.850Z,95479.75
2023-04-02T00:42:07.638Z,95474.41
2023-04-02T00:44:34.570Z,95476.25
2023-04-02T00:47:04.838Z,95471.06
2023-04-02T00:49:40.934Z,95474.53
2023-04-02T00:52:32.279Z,95470.22
2023-04-02T00:55:06.937Z,95475.53
2023-04-02T00:57:33.678Z,95480.84
2023-04-02T01:00:19.013Z,95478.31
2023-04-02T01:03:05.612Z,95481.81
2023-04-02T01:05:34.684Z,95480.97
2023-04-02T01:08:04.416Z,95477.47
2023-04-02T01:10:49.989Z,95479.25
2023-04-02T01:13:25.931Z,95476.59
2023-04-02T01:16:11.650Z,95478.41
2023-04-02T01:18:46.253Z,95481.09
2023-04-02T01:21:16.057Z,95481.19
2023-04-02T01:24:01.329Z,95474.94
2023-04-02T01:26:46.348Z,95478.53
2023-04-02T01:29:22.734Z,95476.88
2023-04-02T01:31:49.449Z,95482.19
2023-04-02T01:34:16.977Z,95492.81
2023-04-02T01:36:56.219Z,95487.50
2023-04-02T01:39:31.876Z,95484.97
2023-04-02T01:42:01.343Z,95480.47
2023-04-02T01:44:48.033Z,95487.63
2023-04-02T01:47:18.828Z,95495.59
2023-04-02T01:49:45.776Z,95484.97
2023-04-02T01:52:14.665Z,95486.78
2023-04-02T01:54:41.207Z,95499.09
2023-04-02T01:57:08.202Z,95496.53
2023-04-02T01:59:35.754Z,95492.09
2023-04-02T02:02:05.099Z,95491.22
2023-04-02T02:04:34.620Z,95494.88
2023-04-02T02:07:01.165Z,95499.34
2023-04-02T02:09:29.652Z,95494.03
2023-04-02T02:11:59.605Z,95503.78
2023-04-02T02:14:27.124Z,95501.13
2023-04-02T02:16:56.615Z,95507.44
2023-04-02T02:19:31.251Z,95507.44
2023-04-02T02:21:58.679Z,95509.13
2023-04-02T02:24:25.900Z,95512.75
2023-04-02T02:26:58.401Z,95519.75
2023-04-02T02:29:25.016Z,95516.25
2023-04-02T02:31:52.632Z,95520.72
2023-04-02T02:34:21.040Z,95516.38
2023-04-02T02:36:51.360Z,95523.50
2023-04-02T02:39:25.946Z,95523.50
2023-04-02T02:41:56.256Z,95528.81
2023-04-02T02:44:24.799Z,95530.63
2023-04-02T02:46:52.439Z,95527.97
2023-04-02T02:49:21.373Z,95538.72
2023-04-02T02:52:01.905Z,95538.72
2023-04-02T02:54:36.812Z,95533.50
2023-04-02T02:57:08.180Z,95534.41
2023-04-02T02:59:34.754Z,95529.91
2023-04-02T03:02:02.728Z,95532.66
2023-04-02T03:04:35.631Z,95541.47
2023-04-02T03:07:06.653Z,95540.63
2023-04-02T03:09:46.046Z,95548.59
2023-04-02T03:12:28.562Z,95553.09
2023-04-02T03:15:13.910Z,95563.72
2023-04-02T03:17:49.621Z,95554.03
2023-04-02T03:20:22.036Z,95554.03
2023-04-02T03:22:56.652Z,95561.16
2023-04-02T03:25:32.876Z,95561.28
2023-04-02T03:28:02.811Z,95562.13
2023-04-02T03:30:29.306Z,95563.09
2023-04-02T03:33:04.810Z,95569.38
2023-04-02T03:35:36.480Z,95568.41
2023-04-02T03:38:07.826Z,95575.56
2023-04-02T03:40:35.776Z,95572.91
2023-04-02T03:43:35.030Z,95572.91
2023-04-02T03:46:09.743Z,95576.50
2023-04-02T03:48:39.932Z,95578.22
2023-04-02T03:51:15.228Z,95578.22
2023-04-02T03:53:41.936Z,95579.16
2023-04-02T03:56:09.029Z,95582.66
2023-04-02T03:58:39.369Z,95593.28
2023-04-02T04:01:09.402Z,95590.78
2023-04-02T04:03:41.895Z,95584.47
2023-04-02T04:06:10.579Z,95580.97
2023-04-02T04:08:42.423Z,95577.50
2023-04-02T04:11:10.319Z,95577.34
2023-04-02T04:13:40.549Z,95582.66
2023-04-02T04:16:08.435Z,95584.47
2023-04-02T04:18:37.985Z,95587.03
2023-04-02T04:21:29.862Z,95595.00
2023-04-02T04:24:03.742Z,95599.47
2023-04-02T04:26:35.173Z,95600.31
2023-04-02T04:29:12.379Z,95601.25
2023-04-02T04:31:41.367Z,95605.72
2023-04-02T04:34:12.778Z,95611.06
2023-04-02T04:36:47.812Z,95610.22
2023-04-02T04:39:17.490Z,95615.53
2023-04-02T04:41:47.213Z,95612.97
2023-04-02T04:44:14.745Z,95605.84
2023-04-02T04:46:45.271Z,95608.75
2023-04-02T04:49:14.443Z,95614.91
2023-04-02T04:51:48.463Z,95622.88
2023-04-02T04:54:15.664Z,95627.25
2023-04-02T04:56:46.908Z,95632.56
2023-04-02T04:59:20.484Z,95636.06
2023-04-02T05:02:01.930Z,95648.38
2023-04-02T05:04:31.113Z,95650.06
2023-04-02T05:06:57.929Z,95648.38
2023-04-02T05:09:27.455Z,95652.72
2023-04-02T05:12:02.474Z,95661.53
2023-04-02T05:14:56.848Z,95667.56
2023-04-02T05:17:26.336Z,95674.59
2023-04-02T05:19:56.837Z,95677.00
2023-04-02T05:22:27.151Z,95678.63
2023-04-02T05:24:56.696Z,95684.53
2023-04-02T05:27:42.183Z,95686.22
2023-04-02T05:30:24.736Z,95693.09
2023-04-02T05:33:05.141Z,95694.69
2023-04-02T05:35:32.772Z,95704.25
2023-04-02T05:38:01.681Z,95710.16
2023-04-02T05:40:33.802Z,95716.09
2023-04-02T05:43:00.416Z,95718.38
2023-04-02T05:45:28.737Z,95726.97
2023-04-02T05:48:01.559Z,95730.25
2023-04-02T05:50:37.078Z,95741.59
2023-04-02T05:53:21.650Z,95735.91
2023-04-02T05:55:52.371Z,95741.13
2023-04-02T05:58:34.709Z,95737.34
2023-04-02T06:01:28.153Z,95752.09
2023-04-02T06:03:57.495Z,95755.25
2023-04-02T06:06:40.014Z,95765.63
2023-04-02T06:09:09.009Z,95767.94
2023-04-02T06:11:45.455Z,95764.09
2023-04-02T06:14:16.186Z,95777.00
2023-04-02T06:16:44.263Z,95772.41
2023-04-02T06:19:15.927Z,95775.78
2023-04-02T06:21:46.440Z,95794.00
2023-04-02T06:24:13.676Z,95792.50
2023-04-02T06:26:41.839Z,95808.97
2023-04-02T06:29:14.416Z,95800.50
2023-04-02T06:31:51.252Z,95809.09
2023-04-02T06:34:21.600Z,95808.09
2023-04-02T06:37:03.916Z,95810.75
2023-04-02T06:39:32.771Z,95812.34
2023-04-02T06:42:07.456Z,95813.09
2023-04-02T06:44:56.781Z,95826.00
2023-04-02T06:47:43.863Z,95827.56
2023-04-02T06:50:19.226Z,95836.28
2023-04-02T06:52:46.593Z,95849.25
2023-04-02T06:55:31.795Z,95853.34
2023-04-02T06:57:59.369Z,95854.06
2023-04-02T07:00:34.921Z,95859.28
2023-04-02T07:03:02.915Z,95859.16
2023-04-02T07:05:29.542Z,95866.78
2023-04-02T07:07:56.969Z,95881.53
2023-04-02T07:10:23.613Z,95884.09
2023-04-02T07:12:50.196Z,95880.31
2023-04-02T07:15:17.389Z,95888.06
2023-04-02T07:17:44.105Z,95888.53
2023-04-02T07:20:30.950Z,95887.50
2023-04-02T07:23:01.720Z,95892.56
2023-04-02T07:25:28.219Z,95895.81
2023-04-02T07:27:54.721Z,95889.38
2023-04-02T07:30:21.300Z,95896.44
2023-04-02T07:32:48.132Z,95893.50
2023-04-02T07:35:14.650Z,95896.03
2023-04-02T07:37:41.195Z,95902.97
2023-04-02T07:40:14.410Z,95904.53
2023-04-02T07:42:41.039Z,95917.72
2023-04-02T07:45:07.926Z,95919.28
2023-04-02T07:47:34.473Z,95923.50
2023-04-02T07:50:00.951Z,95923.38
2023-04-02T07:52:27.453Z,95923.28
2023-04-02T07:54:53.902Z,95927.50
2023-04-02T07:57:20.574Z,95934.38
2023-04-02T07:59:47.413Z,95937.94
2023-04-02T08:02:21.055Z,95933.31
2023-04-02T08:04:51.285Z,95936.59
2023-04-02T08:07:18.855Z,95940.81
2023-04-02T08:09:45.486Z,95933.75
2023-04-02T08:12:14.691Z,95937.31
2023-04-02T08:14:41.413Z,95944.31
2023-04-02T08:17:07.894Z,95946.84
2023-04-02T08:19:44.411Z,95945.75
2023-04-02T08:22:18.394Z,95949.28
2023-04-02T08:24:44.946Z,95947.47
2023-04-02T08:27:13.635Z,95946.63
2023-04-02T08:29:40.214Z,95955.47
2023-04-02T08:32:07.566Z,95948.28
2023-04-02T08:34:34.028Z,95958.97
2023-04-02T08:37:00.625Z,95954.47
2023-04-02T08:39:29.489Z,95954.34
2023-04-02T08:41:56.388Z,95965.75
2023-04-02T08:44:32.334Z,95968.16
2023-04-02T08:47:01.336Z,95970.44
2023-04-02T08:49:32.137Z,95987.03
2023-04-02T08:51:58.679Z,95980.59
2023-04-02T08:54:31.174Z,95985.69
2023-04-02T08:57:03.486Z,95987.41
2023-04-02T08:59:37.039Z,95992.50
2023-04-02T09:02:06.311Z,96001.72
2023-04-02T09:04:32.933Z,96002.88
2023-04-02T09:06:59.431Z,96012.19
2023-04-02T09:09:26.063Z,96004.19
2023-04-02T09:12:02.873Z,95985.19
2023-04-02T09:14:38.584Z,95990.88
2023-04-02T09:17:05.723Z,95984.09
2023-04-02T09:19:38.988Z,95976.38
2023-04-02T09:22:07.721Z,95974.31
2023-04-02T09:24:34.622Z,95982.81
2023-04-02T09:27:01.318Z,95976.75
2023-04-02T09:29:44.551Z,95981.22
2023-04-02T09:32:13.861Z,95995.03
2023-04-02T09:34:40.535Z,96010.34
2023-04-02T09:37:17.407Z,96033.31
2023-04-02T09:39:43.936Z,96035.97
2023-04-02T09:42:29.075Z,96054.75
2023-04-02T09:45:15.927Z,96060.16
2023-04-02T09:47:42.645Z,96058.41
2023-04-02T09:50:21.331Z,96070.41
2023-04-02T09:52:48.350Z,96056.78
2023-04-02T09:55:15.352Z,96052.44
2023-04-02T09:57:42.255Z,96043.72
2023-04-02T10:00:29.808Z,96049.16
2023-04-02T10:03:12.089Z,96049.16
2023-04-02T10:05:41.027Z,96058.03
2023-04-02T10:08:34.549Z,96053.56
2023-04-02T10:11:02.070Z,96056.22
2023-04-02T10:13:34.101Z,96063.25
2023-04-02T10:16:02.475Z,96064.94
2023-04-02T10:18:28.927Z,96063.13
2023-04-02T10:20:55.724Z,96078.03
2023-04-02T10:23:23.298Z,96066.38
2023-04-02T10:25:53.403Z,96068.06
2023-04-02T10:28:34.660Z,96071.44
2023-04-02T10:31:03.595Z,96081.06
2023-04-02T10:33:32.227Z,96082.75
2023-04-02T10:36:08.331Z,96084.34
2023-04-02T10:38:38.701Z,96086.84
2023-04-02T10:41:24.145Z,96092.09
2023-04-02T10:43:50.770Z,96094.50
2023-04-02T10:46:25.864Z,96093.41
2023-04-02T10:48:56.104Z,96098.50
2023-04-02T10:51:41.504Z,96101.00
2023-04-02T10:54:07.969Z,96098.34
2023-04-02T10:56:44.143Z,96106.22
2023-04-02T10:59:17.158Z,96109.03
2023-04-02T11:01:43.831Z,96099.34
2023-04-02T11:04:23.791Z,96112.69
2023-04-02T11:06:58.120Z,96117.75
2023-04-02T11:09:31.883Z,96120.19
2023-04-02T11:11:58.836Z,96126.38
2023-04-02T11:14:26.287Z,96126.38
2023-04-02T11:16:53.345Z,96119.34
2023-04-02T11:19:19.906Z,96112.56
2023-04-02T11:21:59.606Z,96111.13
2023-04-02T11:24:31.479Z,96113.19
2023-04-02T11:27:03.958Z,96111.78
2023-04-02T11:29:30.758Z,96108.38
2023-04-02T11:32:29.942Z,96113.97
2023-04-02T11:35:06.521Z,96113.34
2023-04-02T11:37:44.382Z,96120.50
2023-04-02T11:40:10.848Z,96118.94
2023-04-02T11:42:47.126Z,96114.69
2023-04-02T11:45:22.900Z,96132.66
2023-04-02T11:48:09.368Z,96112.66
2023-04-02T11:50:36.932Z,96114.28
2023-04-02T11:53:13.094Z,96115.13
2023-04-02T11:55:40.475Z,96103.53
2023-04-02T11:58:10.945Z,96105.59
2023-04-02T12:00:42.125Z,96105.84
2023-04-02T12:03:28.355Z,96118.19
2023-04-02T12:05:58.527Z,96124.38
2023-04-02T12:08:44.216Z,96121.72
2023-04-02T12:11:17.401Z,96119.19
2023-04-02T12:13:43.839Z,96127.19
2023-04-02T12:16:15.488Z,96120.16
2023-04-02T12:18:46.739Z,96123.91
2023-04-02T12:21:17.229Z,96125.75
2023-04-02T12:23:45.274Z,96133.59
2023-04-02T12:26:32.194Z,96136.53
2023-04-02T12:29:17.546Z,96124.41
2023-04-02T12:31:47.807Z,96117.50
2023-04-02T12:34:15.513Z,96129.16
2023-04-02T12:36:51.363Z,96125.63
2023-04-02T12:39:18.276Z,96123.94
2023-04-02T12:41:44.719Z,96123.22
2023-04-02T12:44:18.448Z,96125.16
2023-04-02T12:46:45.630Z,96128.00
2023-04-02T12:49:30.779Z,96130.94
2023-04-02T12:51:57.365Z,96127.44
2023-04-02T12:54:23.832Z,96121.34
2023-04-02T12:56:50.791Z,96127.78
2023-04-02T12:59:27.633Z,96117.22
2023-04-02T13:02:01.325Z,96121.00
2023-04-02T13:04:28.041Z,96117.59
2023-04-02T13:06:56.389Z,96121.22
2023-04-02T13:09:35.793Z,96133.00
2023-04-02T13:12:02.720Z,96139.16
2023-04-02T13:14:29.228Z,96141.00
2023-04-02T13:16:56.043Z,96143.31
2023-04-02T13:19:29.811Z,96143.91
2023-04-02T13:21:57.272Z,96135.31
2023-04-02T13:24:24.668Z,96130.59
2023-04-02T13:26:51.433Z,96125.38
2023-04-02T13:29:19.824Z,96143.78
2023-04-02T13:31:46.342Z,96147.66
2023-04-02T13:34:12.828Z,96156.34
2023-04-02T13:36:39.334Z,96162.06
2023-04-02T13:39:05.991Z,96168.44
2023-04-02T13:41:35.225Z,96165.31
2023-04-02T13:44:02.438Z,96165.75
2023-04-02T13:46:30.104Z,96163.28
2023-04-02T13:48:57.023Z,96168.84
2023-04-02T13:51:35.052Z,96169.72
2023-04-02T13:54:01.551Z,96173.22
2023-04-02T13:56:28.002Z,96178.44
2023-04-02T13:58:54.519Z,96179.16
2023-04-02T14:01:21.285Z,96186.19
2023-04-02T14:03:47.800Z,96186.19
2023-04-02T14:06:49.041Z,96197.72
2023-04-02T14:09:21.373Z,96202.91
2023-04-02T14:11:56.267Z,96205.56
2023-04-02T14:14:38.074Z,96212.72
2023-04-02T14:17:04.991Z,96209.31
2023-04-02T14:19:42.240Z,96208.59
2023-04-02T14:22:13.000Z,96211.34
2023-04-02T14:25:01.760Z,96212.19
2023-04-02T14:27:28.257Z,96212.44
2023-04-02T14:30:01.225Z,96209.16
2023-04-02T14:32:33.743Z,96213.88
2023-04-02T14:35:06.965Z,96219.19
2023-04-02T14:37:42.064Z,96224.63
2023-04-02T14:40:27.358Z,96226.44
2023-04-02T14:42:57.126Z,96231.03
2023-04-02T14:45:28.153Z,96230.53
2023-04-02T14:47:55.882Z,96235.25
2023-04-02T14:50:27.850Z,96253.91
2023-04-02T14:52:56.616Z,96254.84
2023-04-02T14:55:43.980Z,96261.34
2023-04-02T14:58:13.178Z,96261.34
2023-04-02T15:00:52.144Z,96258.69
2023-04-02T15:03:21.904Z,96272.53
2023-04-02T15:05:48.425Z,96279.53
2023-04-02T15:08:14.893Z,96281.25
2023-04-02T15:10:56.158Z,96281.25
2023-04-02T15:13:28.742Z,96292.00
2023-04-02T15:15:59.249Z,96285.94
2023-04-02T15:18:26.017Z,96281.56
2023-04-02T15:20:52.665Z,96289.81
2023-04-02T15:23:22.216Z,96288.94
2023-04-02T15:25:49.070Z,96298.00
2023-04-02T15:28:26.813Z,96296.31
2023-04-02T15:30:54.512Z,96303.56
2023-04-02T15:33:31.189Z,96305.50
2023-04-02T15:36:08.815Z,96312.59
2023-04-02T15:38:41.085Z,96306.53
2023-04-02T15:41:13.641Z,96312.84
2023-04-02T15:43:40.086Z,96313.91
2023-04-02T15:46:21.955Z,96315.72
2023-04-02T15:48:48.619Z,96320.31
2023-04-02T15:51:15.031Z,96323.94
2023-04-02T15:53:51.595Z,96330.22
2023-04-02T15:56:26.589Z,96327.66
2023-04-02T15:58:59.924Z,96329.47
2023-04-02T16:01:32.615Z,96330.41
2023-04-02T16:04:04.012Z,96331.28
2023-04-02T16:06:49.317Z,96334.91
2023-04-02T16:09:22.137Z,96343.72
2023-04-02T16:11:50.753Z,96344.59
2023-04-02T16:14:27.402Z,96351.72
2023-04-02T16:16:55.950Z,96355.25
2023-04-02T16:19:35.613Z,96359.50
2023-04-02T16:22:02.248Z,96370.13
2023-04-02T16:24:28.727Z,96372.81
2023-04-02T16:26:57.576Z,96378.03
2023-04-02T16:29:53.439Z,96370.78
2023-04-02T16:32:39.932Z,96384.09
2023-04-02T16:35:38.044Z,96381.44
2023-04-02T16:38:09.359Z,96385.91
2023-04-02T16:40:42.036Z,96394.00
2023-04-02T16:43:13.220Z,96403.91
2023-04-02T16:45:52.900Z,96398.59
2023-04-02T16:48:37.586Z,96402.94
2023-04-02T16:51:04.347Z,96414.31
2023-04-02T16:53:33.852Z,96423.19
2023-04-02T16:56:21.895Z,96417.13
2023-04-02T16:58:48.917Z,96419.00
2023-04-02T17:01:25.814Z,96427.00
2023-04-02T17:03:58.392Z,96430.44
2023-04-02T17:06:33.099Z,96433.84
2023-04-02T17:09:05.069Z,96439.25
2023-04-02T17:11:50.358Z,96447.25
2023-04-02T17:14:37.183Z,96454.78
2023-04-02T17:17:04.654Z,96453.63
2023-04-02T17:19:31.839Z,96457.88
2023-04-02T17:22:02.485Z,96461.41
2023-04-02T17:25:04.365Z,96462.44
2023-04-02T17:27:37.022Z,96461.72
2023-04-02T17:30:05.059Z,96467.25
2023-04-02T17:32:36.904Z,96467.47
2023-04-02T17:35:16.268Z,96476.53
2023-04-02T17:37:44.223Z,96475.78
2023-04-02T17:40:13.694Z,96479.47
2023-04-02T17:42:46.988Z,96483.97
2023-04-02T17:45:15.284Z,96488.53
2023-04-02T17:47:54.929Z,96490.47
2023-04-02T17:50:29.619Z,96490.56
2023-04-02T17:52:59.928Z,96502.19
2023-04-02T17:55:40.433Z,96499.63
2023-04-02T17:58:11.106Z,96504.09
2023-04-02T18:00:46.824Z,96513.03
2023-04-02T18:03:18.512Z,96514.00
2023-04-02T18:05:46.040Z,96520.25
2023-04-02T18:08:44.961Z,96517.69
2023-04-02T18:11:18.837Z,96531.97
2023-04-02T18:13:48.290Z,96545.28
2023-04-02T18:16:23.224Z,96547.09
2023-04-02T18:18:55.858Z,96552.44
2023-04-02T18:21:31.554Z,96560.41
2023-04-02T18:24:01.993Z,96570.19
2023-04-02T18:26:47.569Z,96567.50
2023-04-02T18:29:23.421Z,96578.25
2023-04-02T18:31:56.815Z,96591.56
2023-04-02T18:34:32.673Z,96587.19
2023-04-02T18:37:14.783Z,96596.00
2023-04-02T18:39:41.347Z,96601.34
2023-04-02T18:42:26.605Z,96609.31
2023-04-02T18:45:03.393Z,96614.63
2023-04-02T18:47:48.189Z,96615.53
2023-04-02T18:50:18.749Z,96622.63
2023-04-02T18:52:45.387Z,96620.06
2023-04-02T18:55:30.912Z,96627.94
2023-04-02T18:57:59.255Z,96632.41
2023-04-02T19:00:26.237Z,96633.38
2023-04-02T19:03:31.239Z,96636.91
2023-04-02T19:06:19.196Z,96648.38
2023-04-02T19:08:48.254Z,96649.34
2023-04-02T19:11:18.337Z,96652.00
2023-04-02T19:13:51.433Z,96647.63
2023-04-02T19:16:17.931Z,96655.63
2023-04-02T19:18:51.762Z,96663.59
2023-04-02T19:21:30.637Z,96672.53
2023-04-02T19:23:59.880Z,96671.69
2023-04-02T19:26:27.967Z,96681.47
2023-04-02T19:28:54.428Z,96677.97
2023-04-02T19:31:33.217Z,96685.00
2023-04-02T19:34:06.734Z,96685.09
2023-04-02T19:36:41.504Z,96688.63
2023-04-02T19:39:17.134Z,96695.72
2023-04-02T19:41:48.190Z,96696.69
2023-04-02T19:44:15.287Z,96706.38
2023-04-02T19:46:41.850Z,96702.97
2023-04-02T19:49:09.701Z,96708.28
2023-04-02T19:51:36.214Z,96715.31
2023-04-02T19:54:02.726Z,96710.94
2023-04-02T19:56:29.417Z,96729.56
2023-04-02T19:58:56.800Z,96726.06
2023-04-02T20:01:24.812Z,96719.00
2023-04-02T20:03:51.488Z,96733.19
2023-04-02T20:06:18.058Z,96736.78
2023-04-02T20:08:45.441Z,96747.34
2023-04-02T20:11:11.880Z,96750.94
2023-04-02T20:13:38.442Z,96750.00
2023-04-02T20:16:05.325Z,96754.50
2023-04-02T20:18:32.024Z,96760.75
2023-04-02T20:20:58.530Z,96758.09
2023-04-02T20:23:25.073Z,96766.06
2023-04-02T20:25:53.156Z,96772.25
2023-04-02T20:28:20.135Z,96774.91
2023-04-02T20:30:46.774Z,96783.75
2023-04-02T20:33:13.395Z,96790.88
2023-04-02T20:35:40.086Z,96778.44
2023-04-02T20:38:08.184Z,96778.44
2023-04-02T20:40:35.058Z,96790.00
2023-04-02T20:43:02.080Z,96790.00
2023-04-02T20:45:29.258Z,96802.38
2023-04-02T20:47:55.806Z,96796.19
2023-04-02T20:50:22.425Z,96800.56
2023-04-02T20:52:49.087Z,96810.38
2023-04-02T20:55:15.625Z,96815.69
2023-04-02T20:57:42.331Z,96813.97
2023-04-02T21:00:10.184Z,96813.22
2023-04-02T21:02:36.854Z,96811.41
2023-04-02T21:05:03.928Z,96828.31
2023-04-02T21:07:30.467Z,96815.97
2023-04-02T21:09:57.122Z,96823.09
2023-04-02T21:12:24.963Z,96819.59
2023-04-02T21:14:57.035Z,96824.06
2023-04-02T21:17:23.741Z,96827.66
2023-04-02T21:19:50.229Z,96825.84
2023-04-02T21:22:17.155Z,96828.63
2023-04-02T21:24:43.598Z,96831.28
2023-04-02T21:27:10.304Z,96833.94
2023-04-02T21:29:36.891Z,96840.22
2023-04-02T21:32:11.102Z,96841.06
2023-04-02T21:34:41.188Z,96836.69
2023-04-02T21:37:07.633Z,96831.47
2023-04-02T21:39:34.295Z,96839.44
2023-04-02T21:42:00.809Z,96846.59
2023-04-02T21:44:27.353Z,96841.25
2023-04-02T21:46:54.300Z,96839.53
2023-04-02T21:49:22.652Z,96845.69
2023-04-02T21:51:51.335Z,96837.84
2023-04-02T21:54:17.824Z,96843.16
2023-04-02T21:56:45.428Z,96848.38
2023-04-02T21:59:12.445Z,96842.19
2023-04-02T22:01:40.150Z,96846.66
2023-04-02T22:04:07.275Z,96839.63
2023-04-02T22:06:41.251Z,96844.09
2023-04-02T22:09:09.498Z,96855.50
2023-04-02T22:11:37.222Z,96854.66
2023-04-02T22:14:03.968Z,96862.63
2023-04-02T22:16:31.174Z,96869.66
2023-04-02T22:18:59.350Z,96867.88
2023-04-02T22:21:25.915Z,96871.47
2023-04-02T22:23:52.636Z,96877.63
2023-04-02T22:26:19.317Z,96889.25
2023-04-02T22:28:46.034Z,96882.09
2023-04-02T22:31:13.704Z,96881.25
2023-04-02T22:33:40.928Z,96883.06
2023-04-02T22:36:07.425Z,96876.09
2023-04-02T22:38:34.344Z,96894.66
2023-04-02T22:41:07.621Z,96886.75
2023-04-02T22:43:34.442Z,96892.06
2023-04-02T22:46:00.957Z,96895.59
2023-04-02T22:48:27.519Z,96893.88
2023-04-02T22:50:54.130Z,96895.69
2023-04-02T22:53:21.095Z,96909.84
2023-04-02T22:55:47.689Z,96901.00
2023-04-02T22:58:14.225Z,96900.16
2023-04-02T23:00:41.117Z,96900.16
2023-04-02T23:03:07.693Z,96901.09
2023-04-02T23:05:34.140Z,96897.59
2023-04-02T23:08:00.986Z,96898.44
2023-04-02T23:10:28.993Z,96899.41
2023-04-02T23:12:57.232Z,96902.06
2023-04-02T23:15:23.757Z,96906.50
2023-04-02T23:17:50.443Z,96903.00
2023-04-02T23:20:16.903Z,96895.03
2023-04-02T23:22:43.475Z,96895.09
2023-04-02T23:25:10.062Z,96902.16
2023-04-02T23:27:36.833Z,96903.09
2023-04-02T23:30:03.745Z,96896.06
2023-04-02T23:32:30.236Z,96898.63
2023-04-02T23:34:56.706Z,96897.00
2023-04-02T23:37:23.192Z,96891.69
2023-04-02T23:39:49.709Z,96894.34
2023-04-02T23:42:16.231Z,96898.81
2023-04-02T23:44:42.710Z,96900.63
2023-04-02T23:47:09.332Z,96896.16
2023-04-02T23:49:35.835Z,96903.16
2023-04-02T23:52:02.293Z,96897.00
2023-04-02T23:54:28.889Z,96901.47
2023-04-02T23:56:55.420Z,96894.44
2023-04-02T23:59:21.893Z,96897.09
